createdAt,value
2017-07-08T00:01:08.451Z,20.00
2017-07-08T00:03:36.837Z,20.10
2017-07-08T00:06:05.107Z,20.00
2017-07-08T00:08:33.492Z,20.00
2017-07-08T00:11:01.828Z,20.00
2017-07-08T00:13:30.093Z,20.10
2017-07-08T00:15:58.485Z,20.10
2017-07-08T00:18:26.870Z,20.10
2017-07-08T00:20:55.167Z,20.10
2017-07-08T00:23:24.243Z,20.10
2017-07-08T00:25:52.634Z,20.10
2017-07-08T00:28:21.009Z,20.10
2017-07-08T00:30:49.380Z,20.20
2017-07-08T00:33:17.669Z,20.10
2017-07-08T00:35:46.038Z,20.10
2017-07-08T00:38:14.345Z,20.10
2017-07-08T00:40:42.617Z,20.00
2017-07-08T00:43:10.998Z,19.90
2017-07-08T00:45:39.290Z,19.90
2017-07-08T00:48:07.685Z,19.90
2017-07-08T00:50:36.013Z,19.90
2017-07-08T00:53:04.311Z,19.90
2017-07-08T00:55:32.614Z,19.80
2017-07-08T00:58:00.884Z,19.80
2017-07-08T01:00:29.952Z,19.60
2017-07-08T01:02:58.430Z,19.60
2017-07-08T01:05:26.700Z,19.60
2017-07-08T01:07:55.098Z,19.50
2017-07-08T01:10:23.478Z,19.60
2017-07-08T01:12:51.841Z,19.50
2017-07-08T01:15:20.120Z,19.50
2017-07-08T01:17:48.520Z,19.50
2017-07-08T01:20:16.887Z,19.50
2017-07-08T01:22:46.071Z,19.40
2017-07-08T01:25:14.452Z,19.40
2017-07-08T01:27:42.719Z,19.50
2017-07-08T01:30:11.021Z,19.40
2017-07-08T01:32:40.099Z,19.30
2017-07-08T01:35:08.469Z,19.30
2017-07-08T01:37:36.829Z,19.30
2017-07-08T01:40:05.154Z,19.30
2017-07-08T01:42:33.539Z,19.20
2017-07-08T01:45:01.830Z,19.20
2017-07-08T01:47:30.189Z,19.20
2017-07-08T01:49:58.587Z,19.20
2017-07-08T01:52:26.958Z,19.20
2017-07-08T01:54:56.002Z,19.00
2017-07-08T01:57:24.314Z,19.10
2017-07-08T01:59:52.582Z,19.00
2017-07-08T02:02:20.945Z,19.00
2017-07-08T02:04:49.238Z,19.00
2017-07-08T02:07:17.501Z,19.00
2017-07-08T02:09:45.787Z,18.90
2017-07-08T02:12:14.071Z,19.00
2017-07-08T02:14:42.470Z,19.00
2017-07-08T02:17:10.741Z,18.90
2017-07-08T02:19:39.212Z,18.80
2017-07-08T02:22:08.266Z,18.90
2017-07-08T02:24:36.546Z,18.80
2017-07-08T02:27:04.942Z,18.90
2017-07-08T02:29:33.204Z,18.80
2017-07-08T02:32:01.529Z,18.80
2017-07-08T02:34:30.628Z,18.80
2017-07-08T02:36:58.970Z,18.90
2017-07-08T02:39:27.263Z,18.80
2017-07-08T02:41:56.297Z,18.70
2017-07-08T02:44:24.594Z,18.70
2017-07-08T02:46:52.898Z,18.80
2017-07-08T02:49:21.194Z,18.80
2017-07-08T02:51:50.215Z,18.90
2017-07-08T02:54:18.542Z,18.90
2017-07-08T02:56:46.921Z,18.90
2017-07-08T02:59:15.205Z,19.00
2017-07-08T03:01:43.469Z,19.00
2017-07-08T03:04:11.860Z,19.00
2017-07-08T03:06:40.151Z,19.00
2017-07-08T03:09:08.423Z,19.00
2017-07-08T03:11:36.722Z,19.00
2017-07-08T03:14:05.795Z,18.90
2017-07-08T03:16:34.077Z,18.90
2017-07-08T03:19:02.349Z,18.90
2017-07-08T03:21:30.713Z,18.90
2017-07-08T03:23:58.980Z,18.90
2017-07-08T03:26:27.251Z,18.90
2017-07-08T03:28:55.545Z,19.00
2017-07-08T03:31:23.921Z,19.10
2017-07-08T03:33:52.209Z,19.00
2017-07-08T03:36:20.476Z,18.90
2017-07-08T03:38:48.782Z,18.80
2017-07-08T03:41:17.818Z,18.90
2017-07-08T03:43:47.968Z,19.00
2017-07-08T03:46:16.353Z,19.00
2017-07-08T03:48:44.621Z,19.00
2017-07-08T03:51:12.995Z,19.10
2017-07-08T03:53:41.282Z,19.20
2017-07-08T03:56:09.662Z,19.20
2017-07-08T03:58:37.945Z,19.20
2017-07-08T04:01:06.322Z,19.20
2017-07-08T04:03:34.615Z,19.10
2017-07-08T04:06:02.977Z,19.10
2017-07-08T04:08:31.322Z,19.20
2017-07-08T04:11:00.320Z,19.10
2017-07-08T04:13:28.612Z,19.10
2017-07-08T04:15:56.894Z,19.10
2017-07-08T04:18:25.185Z,19.10
2017-07-08T04:20:53.558Z,19.20
2017-07-08T04:23:21.937Z,19.20
2017-07-08T04:25:50.232Z,19.20
2017-07-08T04:28:18.515Z,19.30
2017-07-08T04:30:47.561Z,19.40
2017-07-08T04:33:15.874Z,19.40
2017-07-08T04:35:44.265Z,19.40
2017-07-08T04:38:12.529Z,19.50
2017-07-08T04:40:40.806Z,19.60
2017-07-08T04:43:09.184Z,19.60
2017-07-08T04:45:37.449Z,19.70
2017-07-08T04:48:05.852Z,19.70
2017-07-08T04:50:34.115Z,19.70
2017-07-08T04:53:02.474Z,19.70
2017-07-08T04:55:31.555Z,19.90
2017-07-08T04:58:00.652Z,19.90
2017-07-08T05:00:29.744Z,19.90
2017-07-08T05:02:58.118Z,19.90
2017-07-08T05:05:26.403Z,20.00
2017-07-08T05:07:54.776Z,20.00
2017-07-08T05:10:23.059Z,20.00
2017-07-08T05:12:52.128Z,20.10
2017-07-08T05:15:20.391Z,20.10
2017-07-08T05:17:48.674Z,20.20
2017-07-08T05:20:16.999Z,20.40
2017-07-08T05:22:45.336Z,20.30
2017-07-08T05:25:13.716Z,20.30
2017-07-08T05:27:42.048Z,20.20
2017-07-08T05:30:10.432Z,20.20
2017-07-08T05:32:38.724Z,20.20
2017-07-08T05:35:07.766Z,20.10
2017-07-08T05:37:36.053Z,20.10
2017-07-08T05:40:05.102Z,20.10
2017-07-08T05:42:33.408Z,20.10
2017-07-08T05:45:01.687Z,20.20
2017-07-08T05:47:30.000Z,20.30
2017-07-08T05:49:59.037Z,20.30
2017-07-08T05:52:27.354Z,20.30
2017-07-08T05:54:55.725Z,20.40
2017-07-08T05:57:24.002Z,20.50
2017-07-08T05:59:52.294Z,20.50
2017-07-08T06:02:21.377Z,20.60
2017-07-08T06:04:49.696Z,20.60
2017-07-08T06:07:17.969Z,20.70
2017-07-08T06:09:46.506Z,20.70
2017-07-08T06:12:14.897Z,20.60
2017-07-08T06:14:43.171Z,20.70
2017-07-08T06:17:11.553Z,20.80
2017-07-08T06:19:39.820Z,20.80
2017-07-08T06:22:08.177Z,20.90
2017-07-08T06:24:36.574Z,20.70
2017-07-08T06:27:04.855Z,20.60
2017-07-08T06:29:33.240Z,20.60
2017-07-08T06:32:01.518Z,20.50
2017-07-08T06:34:29.807Z,20.50
2017-07-08T06:36:58.902Z,20.50
2017-07-08T06:39:27.278Z,20.50
2017-07-08T06:41:55.591Z,20.50
2017-07-08T06:44:23.865Z,20.50
2017-07-08T06:46:52.130Z,20.60
2017-07-08T06:49:20.437Z,20.60
2017-07-08T06:51:48.750Z,20.70
2017-07-08T06:54:17.069Z,20.70
2017-07-08T06:56:45.337Z,20.60
2017-07-08T06:59:13.677Z,20.50
2017-07-08T07:01:41.983Z,20.50
2017-07-08T07:04:11.010Z,20.40
2017-07-08T07:06:39.297Z,20.40
2017-07-08T07:09:07.600Z,20.50
2017-07-08T07:11:35.892Z,20.60
2017-07-08T07:14:04.955Z,20.90
2017-07-08T07:16:33.278Z,20.90
2017-07-08T07:19:02.328Z,21.10
2017-07-08T07:21:30.633Z,21.00
2017-07-08T07:23:59.009Z,21.00
2017-07-08T07:26:27.389Z,20.90
2017-07-08T07:28:55.778Z,20.90
2017-07-08T07:31:24.154Z,20.80
2017-07-08T07:33:52.526Z,20.70
2017-07-08T07:36:20.847Z,20.80
2017-07-08T07:38:49.221Z,20.80
2017-07-08T07:41:17.620Z,20.80
2017-07-08T07:43:45.981Z,20.80
2017-07-08T07:46:14.283Z,20.80
2017-07-08T07:48:43.358Z,20.80
2017-07-08T07:51:11.626Z,20.70
2017-07-08T07:53:39.909Z,20.80
2017-07-08T07:56:08.353Z,20.90
2017-07-08T07:58:36.658Z,20.90
2017-07-08T08:01:05.035Z,21.00
2017-07-08T08:03:33.522Z,21.00
2017-07-08T08:06:01.813Z,21.10
2017-07-08T08:08:30.097Z,21.20
2017-07-08T08:10:58.469Z,21.30
2017-07-08T08:13:26.884Z,21.10
2017-07-08T08:15:56.008Z,21.10
2017-07-08T08:18:24.306Z,21.10
2017-07-08T08:20:52.793Z,21.30
2017-07-08T08:23:21.172Z,21.30
2017-07-08T08:25:49.552Z,21.20
2017-07-08T08:28:17.985Z,21.20
2017-07-08T08:30:46.277Z,21.30
2017-07-08T08:33:14.554Z,21.40
2017-07-08T08:35:42.844Z,21.50
2017-07-08T08:38:11.155Z,21.70
2017-07-08T08:40:39.536Z,21.80
2017-07-08T08:43:07.923Z,21.80
2017-07-08T08:45:36.306Z,21.70
2017-07-08T08:48:04.624Z,21.80
2017-07-08T08:50:32.892Z,21.70
2017-07-08T08:53:01.198Z,21.80
2017-07-08T08:55:29.473Z,21.60
2017-07-08T08:57:57.910Z,21.50
2017-07-08T09:00:26.976Z,21.70
2017-07-08T09:02:55.251Z,21.70
2017-07-08T09:05:23.555Z,21.80
2017-07-08T09:07:52.604Z,22.00
2017-07-08T09:10:20.914Z,22.00
2017-07-08T09:12:49.282Z,22.10
2017-07-08T09:15:17.562Z,22.00
2017-07-08T09:17:45.853Z,21.80
2017-07-08T09:20:14.941Z,21.80
2017-07-08T09:22:43.372Z,21.80
2017-07-08T09:25:12.377Z,21.50
2017-07-08T09:27:40.644Z,21.50
2017-07-08T09:30:08.949Z,21.30
2017-07-08T09:32:37.221Z,21.20
2017-07-08T09:35:05.616Z,21.20
2017-07-08T09:37:34.007Z,21.30
2017-07-08T09:40:02.367Z,21.30
2017-07-08T09:42:30.762Z,21.50
2017-07-08T09:44:59.129Z,21.60
2017-07-08T09:47:27.513Z,21.70
2017-07-08T09:49:55.789Z,21.60
2017-07-08T09:52:24.061Z,21.50
2017-07-08T09:54:52.344Z,21.30
2017-07-08T09:57:20.615Z,21.20
2017-07-08T09:59:48.997Z,21.30
2017-07-08T10:02:17.369Z,21.30
2017-07-08T10:04:45.652Z,21.30
2017-07-08T10:07:13.946Z,21.30
2017-07-08T10:09:42.328Z,21.20
2017-07-08T10:12:10.704Z,21.30
2017-07-08T10:14:39.067Z,21.40
2017-07-08T10:17:07.333Z,21.40
2017-07-08T10:19:35.624Z,21.40
2017-07-08T10:22:04.000Z,21.20
2017-07-08T10:24:33.006Z,21.30
2017-07-08T10:27:01.282Z,21.40
2017-07-08T10:29:29.756Z,21.40
2017-07-08T10:31:58.142Z,21.40
2017-07-08T10:34:26.430Z,21.40
2017-07-08T10:36:55.497Z,21.30
2017-07-08T10:39:23.748Z,21.30
2017-07-08T10:41:52.084Z,21.20
2017-07-08T10:44:21.145Z,21.30
2017-07-08T10:46:49.431Z,21.30
2017-07-08T10:49:17.723Z,21.40
2017-07-08T10:51:46.007Z,21.60
2017-07-08T10:54:14.401Z,21.70
2017-07-08T10:56:42.664Z,21.70
2017-07-08T10:59:10.962Z,21.80
2017-07-08T11:01:39.244Z,22.20
2017-07-08T11:04:07.534Z,22.10
2017-07-08T11:06:36.604Z,22.80
2017-07-08T11:09:04.862Z,22.80
2017-07-08T11:11:33.170Z,22.70
2017-07-08T11:14:01.541Z,22.90
2017-07-08T11:16:29.810Z,22.70
2017-07-08T11:18:58.101Z,22.60
2017-07-08T11:21:26.356Z,22.70
2017-07-08T11:23:54.753Z,22.90
2017-07-08T11:26:23.014Z,23.20
2017-07-08T11:28:51.411Z,23.20
2017-07-08T11:31:19.685Z,23.30
2017-07-08T11:33:47.953Z,23.10
2017-07-08T11:36:16.333Z,22.80
2017-07-08T11:38:44.581Z,22.90
2017-07-08T11:41:12.866Z,22.80
2017-07-08T11:43:41.128Z,22.70
2017-07-08T11:46:09.427Z,22.70
2017-07-08T11:48:37.700Z,22.70
2017-07-08T11:51:06.077Z,22.80
2017-07-08T11:53:34.341Z,22.80
2017-07-08T11:56:02.616Z,22.80
2017-07-08T11:58:30.888Z,22.80
2017-07-08T12:00:59.202Z,23.30
2017-07-08T12:03:27.473Z,23.60
2017-07-08T12:05:55.762Z,23.70
2017-07-08T12:08:24.032Z,23.60
2017-07-08T12:10:52.428Z,23.60
2017-07-08T12:13:20.794Z,23.40
2017-07-08T12:15:49.062Z,23.60
2017-07-08T12:18:17.374Z,24.00
2017-07-08T12:20:46.414Z,24.10
2017-07-08T12:23:14.711Z,24.10
2017-07-08T12:25:43.001Z,24.10
2017-07-08T12:28:11.359Z,25.70
2017-07-08T12:30:39.631Z,28.20
2017-07-08T12:33:07.905Z,29.70
2017-07-08T12:35:36.191Z,30.70
2017-07-08T12:38:04.470Z,31.60
2017-07-08T12:40:32.754Z,32.50
2017-07-08T12:43:01.141Z,33.60
2017-07-08T12:45:29.419Z,33.30
2017-07-08T12:47:57.718Z,32.80
2017-07-08T12:50:26.790Z,34.50
2017-07-08T12:52:55.045Z,34.50
2017-07-08T12:55:23.434Z,35.40
2017-07-08T12:57:51.689Z,35.00
2017-07-08T13:00:19.967Z,35.00
2017-07-08T13:02:48.282Z,33.60
2017-07-08T13:05:16.556Z,33.90
2017-07-08T13:07:45.624Z,34.70
2017-07-08T13:10:13.911Z,34.70
2017-07-08T13:12:42.239Z,33.80
2017-07-08T13:15:10.547Z,33.90
2017-07-08T13:17:38.844Z,34.20
2017-07-08T13:20:07.218Z,35.10
2017-07-08T13:22:35.654Z,35.50
2017-07-08T13:25:04.062Z,34.90
2017-07-08T13:27:32.392Z,33.80
2017-07-08T13:30:00.681Z,33.50
2017-07-08T13:32:28.958Z,32.80
2017-07-08T13:34:57.242Z,33.40
2017-07-08T13:37:25.614Z,34.00
2017-07-08T13:39:53.901Z,33.30
2017-07-08T13:42:22.264Z,33.30
2017-07-08T13:44:50.646Z,33.20
2017-07-08T13:47:18.909Z,34.00
2017-07-08T13:49:47.302Z,34.90
2017-07-08T13:52:15.577Z,37.00
2017-07-08T13:54:43.962Z,37.60
2017-07-08T13:57:12.233Z,36.60
2017-07-08T13:59:40.612Z,36.00
2017-07-08T14:02:08.975Z,35.80
2017-07-08T14:04:37.248Z,36.10
2017-07-08T14:07:05.525Z,36.40
2017-07-08T14:09:33.798Z,35.70
2017-07-08T14:12:02.074Z,34.90
2017-07-08T14:14:30.354Z,35.30
2017-07-08T14:16:58.621Z,36.40
2017-07-08T14:19:26.877Z,35.80
2017-07-08T14:21:55.304Z,35.10
2017-07-08T14:24:23.579Z,34.40
2017-07-08T14:26:52.062Z,33.90
2017-07-08T14:29:20.360Z,34.00
2017-07-08T14:31:49.440Z,35.20
2017-07-08T14:34:17.718Z,35.20
2017-07-08T14:36:46.093Z,35.50
2017-07-08T14:39:14.470Z,35.90
2017-07-08T14:41:42.745Z,35.20
2017-07-08T14:44:11.139Z,35.30
2017-07-08T14:46:39.396Z,34.50
2017-07-08T14:49:07.688Z,34.90
2017-07-08T14:51:35.944Z,34.80
2017-07-08T14:54:04.258Z,34.80
2017-07-08T14:56:33.284Z,34.80
2017-07-08T14:59:01.608Z,34.80
2017-07-08T15:01:29.893Z,34.00
2017-07-08T15:03:58.261Z,34.60
2017-07-08T15:06:26.529Z,35.10
2017-07-08T15:08:54.817Z,36.10
2017-07-08T15:11:23.092Z,35.70
2017-07-08T15:13:51.487Z,35.00
2017-07-08T15:16:19.748Z,33.60
2017-07-08T15:18:48.143Z,34.10
2017-07-08T15:21:16.521Z,34.10
2017-07-08T15:23:44.905Z,33.90
2017-07-08T15:26:13.278Z,34.20
2017-07-08T15:28:41.567Z,34.70
2017-07-08T15:31:09.926Z,34.60
2017-07-08T15:33:38.315Z,33.50
2017-07-08T15:36:06.573Z,33.30
2017-07-08T15:38:34.851Z,33.30
2017-07-08T15:41:03.245Z,32.60
2017-07-08T15:43:31.526Z,32.00
2017-07-08T15:45:59.810Z,32.20
2017-07-08T15:48:28.851Z,33.30
2017-07-08T15:50:57.135Z,33.40
2017-07-08T15:53:25.408Z,33.40
2017-07-08T15:55:53.717Z,34.40
2017-07-08T15:58:21.999Z,34.30
2017-07-08T16:00:50.377Z,34.50
2017-07-08T16:03:18.625Z,34.20
2017-07-08T16:05:46.895Z,33.80
2017-07-08T16:08:15.167Z,33.30
2017-07-08T16:10:43.455Z,32.20
2017-07-08T16:13:11.725Z,31.50
2017-07-08T16:15:40.017Z,30.70
2017-07-08T16:18:08.333Z,29.80
2017-07-08T16:20:37.427Z,28.30
2017-07-08T16:23:05.706Z,28.20
2017-07-08T16:25:34.066Z,27.60
2017-07-08T16:28:02.359Z,27.10
2017-07-08T16:30:30.725Z,26.50
2017-07-08T16:32:59.009Z,26.00
2017-07-08T16:35:27.282Z,25.80
2017-07-08T16:37:55.553Z,25.60
2017-07-08T16:40:23.826Z,25.50
2017-07-08T16:42:52.116Z,25.40
2017-07-08T16:45:20.477Z,25.30
2017-07-08T16:47:48.860Z,25.20
2017-07-08T16:50:17.242Z,25.10
2017-07-08T16:52:45.610Z,25.00
2017-07-08T16:55:13.869Z,25.00
2017-07-08T16:57:42.290Z,25.20
2017-07-08T17:00:10.605Z,25.20
2017-07-08T17:02:38.865Z,25.20
2017-07-08T17:05:07.920Z,24.90
2017-07-08T17:07:36.188Z,24.90
2017-07-08T17:10:04.448Z,24.90
2017-07-08T17:12:32.722Z,24.70
2017-07-08T17:15:01.052Z,24.60
2017-07-08T17:17:29.301Z,24.30
2017-07-08T17:19:57.580Z,24.10
2017-07-08T17:22:25.941Z,24.10
2017-07-08T17:24:54.262Z,24.00
2017-07-08T17:27:23.286Z,23.70
2017-07-08T17:29:51.586Z,23.70
2017-07-08T17:32:19.882Z,23.70
2017-07-08T17:34:48.254Z,23.60
2017-07-08T17:37:16.524Z,23.40
2017-07-08T17:39:44.807Z,23.30
2017-07-08T17:42:13.188Z,22.90
2017-07-08T17:44:41.449Z,22.50
2017-07-08T17:47:09.732Z,22.10
2017-07-08T17:49:38.000Z,21.80
2017-07-08T17:52:06.701Z,21.60
2017-07-08T17:54:35.084Z,21.50
2017-07-08T17:57:03.360Z,21.40
2017-07-08T17:59:31.619Z,21.40
2017-07-08T18:01:59.923Z,21.40
2017-07-08T18:04:28.963Z,21.60
2017-07-08T18:06:57.258Z,21.50
2017-07-08T18:09:26.390Z,21.60
2017-07-08T18:11:54.729Z,21.60
2017-07-08T18:14:23.017Z,21.60
2017-07-08T18:16:52.199Z,21.60
2017-07-08T18:19:20.514Z,21.60
2017-07-08T18:21:48.793Z,21.60
2017-07-08T18:24:17.211Z,21.50
2017-07-08T18:26:45.476Z,21.60
2017-07-08T18:29:13.774Z,21.60
2017-07-08T18:31:42.051Z,21.60
2017-07-08T18:34:10.350Z,21.60
2017-07-08T18:36:39.410Z,21.60
2017-07-08T18:39:07.690Z,21.60
2017-07-08T18:41:36.004Z,21.60
2017-07-08T18:44:05.164Z,21.50
2017-07-08T18:46:33.423Z,21.50
2017-07-08T18:49:01.718Z,21.50
2017-07-08T18:51:30.101Z,21.60
2017-07-08T18:53:58.377Z,21.60
2017-07-08T18:56:26.858Z,21.60
2017-07-08T18:58:55.131Z,21.50
2017-07-08T19:01:23.398Z,21.60
2017-07-08T19:03:51.690Z,21.60
2017-07-08T19:06:19.959Z,21.60
2017-07-08T19:08:48.253Z,21.60
2017-07-08T19:11:16.621Z,21.50
2017-07-08T19:13:45.013Z,21.50
2017-07-08T19:16:13.285Z,21.50
2017-07-08T19:18:41.652Z,21.50
2017-07-08T19:21:09.919Z,21.50
2017-07-08T19:23:38.194Z,21.40
2017-07-08T19:26:06.486Z,21.30
2017-07-08T19:28:34.745Z,21.20
2017-07-08T19:31:03.029Z,21.10
2017-07-08T19:33:31.324Z,21.10
2017-07-08T19:35:59.684Z,21.10
2017-07-08T19:38:27.959Z,21.10
2017-07-08T19:40:56.243Z,21.00
2017-07-08T19:43:24.520Z,21.00
2017-07-08T19:45:52.793Z,20.90
2017-07-08T19:48:21.854Z,20.80
2017-07-08T19:50:50.871Z,20.80
2017-07-08T19:53:19.933Z,20.80
2017-07-08T19:55:48.223Z,20.70
2017-07-08T19:58:16.638Z,20.70
2017-07-08T20:00:45.667Z,20.60
2017-07-08T20:03:13.930Z,20.60
2017-07-08T20:05:42.211Z,20.60
2017-07-08T20:08:10.461Z,20.50
2017-07-08T20:10:39.523Z,20.40
2017-07-08T20:13:07.789Z,20.40
2017-07-08T20:15:36.092Z,20.50
2017-07-08T20:18:04.364Z,20.50
2017-07-08T20:20:32.628Z,20.50
2017-07-08T20:23:00.914Z,20.50
2017-07-08T20:25:29.169Z,20.50
2017-07-08T20:27:57.568Z,20.40
2017-07-08T20:30:25.942Z,20.30
2017-07-08T20:32:54.239Z,20.40
2017-07-08T20:35:23.317Z,20.40
2017-07-08T20:37:51.580Z,20.30
2017-07-08T20:40:19.859Z,20.30
2017-07-08T20:42:48.137Z,20.30
2017-07-08T20:45:16.437Z,20.30
2017-07-08T20:47:44.826Z,20.20
2017-07-08T20:50:13.156Z,20.20
2017-07-08T20:52:41.419Z,20.10
2017-07-08T20:55:10.493Z,20.10
2017-07-08T20:57:38.759Z,20.10
2017-07-08T21:00:07.041Z,20.10
2017-07-08T21:02:35.412Z,20.10
2017-07-08T21:05:03.713Z,20.10
2017-07-08T21:07:31.999Z,20.10
2017-07-08T21:10:01.040Z,20.00
2017-07-08T21:12:29.421Z,19.90
2017-07-08T21:14:57.717Z,20.00
2017-07-08T21:17:25.980Z,20.00
2017-07-08T21:19:54.382Z,19.90
2017-07-08T21:22:22.686Z,19.90
2017-07-08T21:24:51.750Z,19.90
2017-07-08T21:27:20.025Z,19.90
2017-07-08T21:29:48.401Z,19.90
2017-07-08T21:32:16.668Z,19.80
2017-07-08T21:34:44.936Z,19.70
2017-07-08T21:37:13.217Z,19.70
2017-07-08T21:39:41.522Z,19.60
2017-07-08T21:42:09.897Z,19.60
2017-07-08T21:44:38.187Z,19.40
2017-07-08T21:47:06.493Z,19.40
2017-07-08T21:49:34.774Z,19.40
2017-07-08T21:52:03.065Z,19.40
2017-07-08T21:54:31.360Z,19.30
2017-07-08T21:56:59.641Z,19.30
2017-07-08T21:59:28.046Z,19.30
2017-07-08T22:01:56.427Z,19.30
2017-07-08T22:04:24.726Z,19.30
2017-07-08T22:06:53.766Z,19.20
2017-07-08T22:09:22.061Z,19.20
2017-07-08T22:11:50.441Z,19.10
2017-07-08T22:14:18.738Z,19.10
2017-07-08T22:16:47.096Z,19.10
2017-07-08T22:19:15.385Z,19.10
2017-07-08T22:21:43.689Z,19.10
2017-07-08T22:24:12.764Z,19.10
2017-07-08T22:26:41.023Z,19.10
2017-07-08T22:29:09.301Z,19.10
2017-07-08T22:31:37.569Z,19.10
2017-07-08T22:34:05.965Z,19.10
2017-07-08T22:36:34.249Z,19.10
2017-07-08T22:39:02.520Z,19.10
2017-07-08T22:41:30.894Z,19.10
2017-07-08T22:43:59.271Z,19.10
2017-07-08T22:46:27.598Z,19.10
2017-07-08T22:48:55.920Z,19.10
2017-07-08T22:51:24.310Z,19.10
2017-07-08T22:53:52.583Z,19.10
2017-07-08T22:56:20.903Z,19.10
2017-07-08T22:58:49.965Z,19.00
2017-07-08T23:01:18.348Z,19.00
2017-07-08T23:03:46.632Z,19.00
2017-07-08T23:06:14.903Z,19.00
2017-07-08T23:08:43.286Z,19.10
2017-07-08T23:11:11.653Z,19.00
2017-07-08T23:13:39.945Z,19.00
2017-07-08T23:16:09.040Z,19.00
2017-07-08T23:18:37.345Z,19.00
2017-07-08T23:21:05.631Z,19.00
2017-07-08T23:23:33.888Z,18.90
2017-07-08T23:26:02.224Z,18.80
2017-07-08T23:28:30.497Z,18.90
2017-07-08T23:30:58.894Z,18.80
2017-07-08T23:33:27.162Z,18.80
2017-07-08T23:35:55.549Z,18.70
2017-07-08T23:38:23.825Z,18.60
2017-07-08T23:40:52.105Z,18.60
2017-07-08T23:43:20.478Z,18.50
2017-07-08T23:45:48.750Z,18.50
2017-07-08T23:48:17.138Z,18.50
2017-07-08T23:50:45.408Z,18.40
2017-07-08T23:53:13.814Z,18.50
2017-07-08T23:55:42.916Z,18.50
2017-07-08T23:58:11.999Z,18.40
